createdAt,value
2023-02-06T00:01:50.581Z,98.10
2023-02-06T00:04:17.423Z,98.20
2023-02-06T00:06:44.328Z,98.20
2023-02-06T00:09:11.293Z,98.10
2023-02-06T00:11:38.173Z,98.30
2023-02-06T00:14:04.978Z,98.20
2023-02-06T00:16:32.662Z,98.30
2023-02-06T00:18:59.670Z,98.10
2023-02-06T00:21:27.324Z,98.30
2023-02-06T00:23:55.065Z,98.20
2023-02-06T00:26:22.246Z,98.30
2023-02-06T00:28:49.054Z,98.10
2023-02-06T00:31:15.952Z,98.40
2023-02-06T00:33:43.350Z,98.20
2023-02-06T00:36:10.250Z,98.30
2023-02-06T00:38:37.740Z,98.10
2023-02-06T00:41:04.809Z,98.20
2023-02-06T00:43:31.629Z,98.20
2023-02-06T00:45:58.416Z,98.10
2023-02-06T00:48:25.830Z,98.10
2023-02-06T00:50:53.154Z,97.90
2023-02-06T00:53:20.095Z,97.60
2023-02-06T00:55:46.952Z,98.10
2023-02-06T00:58:13.727Z,98.10
2023-02-06T01:00:40.456Z,98.20
2023-02-06T01:03:07.350Z,98.30
2023-02-06T01:05:34.403Z,98.30
2023-02-06T01:08:04.036Z,98.30
2023-02-06T01:10:31.212Z,98.30
2023-02-06T01:12:57.995Z,98.30
2023-02-06T01:15:24.709Z,98.30
2023-02-06T01:17:51.561Z,98.40
2023-02-06T01:20:18.463Z,98.30
2023-02-06T01:22:45.281Z,98.20
2023-02-06T01:25:12.031Z,98.30
2023-02-06T01:27:38.981Z,97.90
2023-02-06T01:30:06.432Z,97.80
2023-02-06T01:32:36.294Z,98.00
2023-02-06T01:35:03.044Z,98.20
2023-02-06T01:37:30.562Z,97.90
2023-02-06T01:39:57.364Z,97.90
2023-02-06T01:42:24.092Z,98.00
2023-02-06T01:45:10.824Z,98.10
2023-02-06T01:47:37.537Z,98.10
2023-02-06T01:50:04.416Z,97.70
2023-02-06T01:52:31.262Z,98.20
2023-02-06T01:55:01.342Z,97.70
2023-02-06T01:57:28.265Z,98.10
2023-02-06T01:59:58.028Z,97.90
2023-02-06T02:02:29.663Z,98.20
2023-02-06T02:04:56.948Z,98.30
2023-02-06T02:07:25.569Z,98.40
2023-02-06T02:09:52.716Z,98.30
2023-02-06T02:12:19.696Z,98.40
2023-02-06T02:14:48.117Z,98.00
2023-02-06T02:17:20.827Z,98.10
2023-02-06T02:19:47.559Z,98.10
2023-02-06T02:22:24.014Z,97.90
2023-02-06T02:25:11.146Z,98.30
2023-02-06T02:27:47.158Z,98.00
2023-02-06T02:30:32.515Z,98.20
2023-02-06T02:33:11.318Z,97.70
2023-02-06T02:35:41.082Z,98.00
2023-02-06T02:38:07.795Z,98.20
2023-02-06T02:40:51.877Z,98.30
2023-02-06T02:43:18.610Z,98.20
2023-02-06T02:46:00.552Z,98.30
2023-02-06T02:48:33.246Z,98.20
2023-02-06T02:51:00.497Z,97.90
2023-02-06T02:53:27.801Z,98.20
2023-02-06T02:55:55.021Z,98.20
2023-02-06T02:58:24.085Z,98.30
2023-02-06T03:00:56.526Z,98.40
2023-02-06T03:03:26.274Z,98.40
2023-02-06T03:06:01.956Z,98.40
2023-02-06T03:08:34.368Z,98.30
2023-02-06T03:11:12.256Z,98.70
2023-02-06T03:13:43.158Z,98.60
2023-02-06T03:16:16.929Z,98.30
2023-02-06T03:18:50.366Z,98.50
2023-02-06T03:21:19.779Z,98.70
2023-02-06T03:23:48.202Z,98.60
2023-02-06T03:26:18.323Z,98.50
2023-02-06T03:28:47.739Z,98.60
2023-02-06T03:31:18.163Z,98.50
2023-02-06T03:33:47.565Z,98.50
2023-02-06T03:36:17.212Z,98.60
2023-02-06T03:38:48.870Z,98.60
2023-02-06T03:41:16.510Z,98.60
2023-02-06T03:43:44.596Z,98.50
2023-02-06T03:46:13.089Z,98.60
2023-02-06T03:48:42.116Z,98.70
2023-02-06T03:51:11.337Z,98.70
2023-02-06T03:53:38.868Z,98.50
2023-02-06T03:56:12.116Z,98.50
2023-02-06T03:58:39.005Z,98.60
2023-02-06T04:01:06.682Z,98.60
2023-02-06T04:03:34.036Z,98.50
2023-02-06T04:06:00.898Z,98.60
2023-02-06T04:08:27.624Z,98.70
2023-02-06T04:10:54.396Z,98.60
2023-02-06T04:13:21.304Z,98.60
2023-02-06T04:15:48.052Z,98.70
2023-02-06T04:18:14.745Z,98.60
2023-02-06T04:20:41.600Z,98.30
2023-02-06T04:23:08.720Z,98.70
2023-02-06T04:25:36.056Z,98.70
2023-02-06T04:28:03.779Z,98.60
2023-02-06T04:30:30.686Z,98.60
2023-02-06T04:32:57.430Z,98.60
2023-02-06T04:35:24.335Z,98.60
2023-02-06T04:37:51.082Z,98.50
2023-02-06T04:40:17.932Z,98.60
2023-02-06T04:42:44.754Z,98.60
2023-02-06T04:45:11.690Z,98.70
2023-02-06T04:47:38.546Z,98.60
2023-02-06T04:50:05.977Z,98.60
2023-02-06T04:52:32.811Z,98.70
2023-02-06T04:54:59.574Z,98.60
2023-02-06T04:57:26.924Z,98.60
2023-02-06T04:59:53.652Z,98.50
2023-02-06T05:02:20.429Z,98.60
2023-02-06T05:04:47.354Z,98.60
2023-02-06T05:07:14.099Z,98.60
2023-02-06T05:09:40.978Z,98.70
2023-02-06T05:12:08.127Z,98.80
2023-02-06T05:14:34.878Z,98.50
2023-02-06T05:17:01.646Z,98.60
2023-02-06T05:19:28.535Z,98.50
2023-02-06T05:21:55.309Z,98.60
2023-02-06T05:24:22.059Z,98.60
2023-02-06T05:26:48.981Z,98.60
2023-02-06T05:29:15.759Z,98.60
2023-02-06T05:31:42.647Z,98.50
2023-02-06T05:34:10.239Z,98.60
2023-02-06T05:36:37.085Z,98.60
2023-02-06T05:39:04.708Z,98.70
2023-02-06T05:41:31.614Z,98.40
2023-02-06T05:43:58.383Z,98.60
2023-02-06T05:46:25.150Z,98.50
2023-02-06T05:48:51.952Z,98.70
2023-02-06T05:51:19.965Z,98.50
2023-02-06T05:53:46.751Z,98.60
2023-02-06T05:56:13.543Z,98.70
2023-02-06T05:58:40.270Z,98.50
2023-02-06T06:01:07.030Z,98.60
2023-02-06T06:03:34.075Z,98.70
2023-02-06T06:06:00.828Z,98.40
2023-02-06T06:08:27.714Z,98.70
2023-02-06T06:10:54.602Z,98.50
2023-02-06T06:13:21.379Z,98.60
2023-02-06T06:15:51.929Z,98.80
2023-02-06T06:18:19.665Z,98.60
2023-02-06T06:20:47.012Z,98.70
2023-02-06T06:23:13.783Z,98.70
2023-02-06T06:25:40.547Z,98.50
2023-02-06T06:28:07.357Z,98.50
2023-02-06T06:30:35.662Z,98.50
2023-02-06T06:33:02.624Z,98.60
2023-02-06T06:35:29.419Z,98.90
2023-02-06T06:37:56.177Z,98.60
2023-02-06T06:40:23.246Z,98.60
2023-02-06T06:42:49.963Z,98.60
2023-02-06T06:45:16.792Z,98.80
2023-02-06T06:47:43.708Z,98.40
2023-02-06T06:50:10.476Z,98.60
2023-02-06T06:52:37.281Z,98.70
2023-02-06T06:55:04.129Z,98.40
2023-02-06T06:57:32.296Z,98.50
2023-02-06T06:59:59.179Z,98.40
2023-02-06T07:02:26.169Z,98.70
2023-02-06T07:04:52.913Z,98.50
2023-02-06T07:07:19.665Z,98.70
2023-02-06T07:09:46.876Z,98.60
2023-02-06T07:12:13.623Z,98.80
2023-02-06T07:14:40.372Z,98.60
2023-02-06T07:17:07.249Z,98.60
2023-02-06T07:19:34.042Z,98.70
2023-02-06T07:22:00.858Z,98.90
2023-02-06T07:24:27.684Z,98.70
2023-02-06T07:26:54.490Z,98.70
2023-02-06T07:29:21.251Z,98.80
2023-02-06T07:31:48.303Z,98.50
2023-02-06T07:34:16.721Z,98.70
2023-02-06T07:36:43.596Z,98.80
2023-02-06T07:39:10.475Z,98.70
2023-02-06T07:41:37.238Z,98.90
2023-02-06T07:44:04.046Z,98.70
2023-02-06T07:46:32.167Z,98.60
2023-02-06T07:48:58.976Z,98.30
2023-02-06T07:51:25.753Z,99.00
2023-02-06T07:53:52.610Z,98.90
2023-02-06T07:56:20.064Z,98.70
2023-02-06T07:58:50.252Z,98.60
2023-02-06T08:01:17.183Z,98.40
2023-02-06T08:03:44.030Z,98.70
2023-02-06T08:06:11.541Z,98.80
2023-02-06T08:08:38.391Z,98.90
2023-02-06T08:11:09.059Z,98.90
2023-02-06T08:13:36.030Z,98.80
2023-02-06T08:16:06.514Z,98.50
2023-02-06T08:18:33.420Z,98.70
2023-02-06T08:21:00.815Z,98.70
2023-02-06T08:23:27.642Z,98.70
2023-02-06T08:26:00.997Z,98.90
2023-02-06T08:28:27.816Z,98.70
2023-02-06T08:30:54.995Z,98.70
2023-02-06T08:33:21.822Z,98.80
2023-02-06T08:35:48.760Z,98.80
2023-02-06T08:38:15.465Z,98.40
2023-02-06T08:40:42.220Z,98.70
2023-02-06T08:43:09.049Z,98.70
2023-02-06T08:45:36.250Z,98.90
2023-02-06T08:48:03.287Z,98.60
2023-02-06T08:50:30.094Z,98.60
2023-02-06T08:52:56.939Z,98.70
2023-02-06T08:55:25.175Z,98.80
2023-02-06T08:57:52.283Z,98.90
2023-02-06T09:00:19.404Z,98.80
2023-02-06T09:02:46.169Z,98.70
2023-02-06T09:05:14.552Z,98.60
2023-02-06T09:07:41.784Z,98.60
2023-02-06T09:10:18.985Z,98.70
2023-02-06T09:12:53.294Z,98.70
2023-02-06T09:15:20.047Z,98.80
2023-02-06T09:17:46.836Z,98.70
2023-02-06T09:20:13.751Z,98.70
2023-02-06T09:22:40.490Z,98.70
2023-02-06T09:25:07.501Z,98.60
2023-02-06T09:27:34.283Z,98.80
2023-02-06T09:30:01.000Z,98.70
2023-02-06T09:32:27.793Z,98.70
2023-02-06T09:34:54.681Z,98.70
2023-02-06T09:37:21.536Z,98.70
2023-02-06T09:39:48.270Z,98.50
2023-02-06T09:42:22.973Z,98.50
2023-02-06T09:44:53.727Z,98.60
2023-02-06T09:47:29.245Z,98.60
2023-02-06T09:49:58.567Z,98.80
2023-02-06T09:52:37.734Z,98.60
2023-02-06T09:55:18.176Z,98.50
2023-02-06T09:57:44.980Z,98.30
2023-02-06T10:00:16.126Z,98.50
2023-02-06T10:02:45.821Z,98.60
2023-02-06T10:05:19.887Z,98.50
2023-02-06T10:08:05.732Z,98.40
2023-02-06T10:10:36.900Z,98.40
2023-02-06T10:13:10.439Z,98.40
2023-02-06T10:15:41.832Z,98.40
2023-02-06T10:18:14.771Z,98.40
2023-02-06T10:20:46.505Z,98.30
2023-02-06T10:23:22.398Z,98.10
2023-02-06T10:26:01.970Z,98.30
2023-02-06T10:28:30.129Z,98.20
2023-02-06T10:31:09.241Z,98.20
2023-02-06T10:33:54.676Z,98.30
2023-02-06T10:36:39.556Z,98.20
2023-02-06T10:39:07.939Z,98.20
2023-02-06T10:41:43.693Z,98.30
2023-02-06T10:44:13.524Z,98.50
2023-02-06T10:46:41.822Z,98.30
2023-02-06T10:49:27.954Z,98.50
2023-02-06T10:51:57.187Z,98.50
2023-02-06T10:54:31.499Z,98.30
2023-02-06T10:56:58.893Z,98.30
2023-02-06T10:59:28.733Z,98.50
2023-02-06T11:02:01.719Z,98.60
2023-02-06T11:04:34.831Z,98.50
2023-02-06T11:07:03.655Z,98.60
2023-02-06T11:09:30.742Z,98.70
2023-02-06T11:11:58.472Z,98.70
2023-02-06T11:14:28.454Z,98.50
2023-02-06T11:16:57.867Z,98.50
2023-02-06T11:19:28.890Z,98.60
2023-02-06T11:22:16.360Z,98.40
2023-02-06T11:24:58.208Z,98.30
2023-02-06T11:27:25.560Z,98.30
2023-02-06T11:29:52.425Z,98.50
2023-02-06T11:32:41.245Z,98.50
2023-02-06T11:35:26.387Z,98.60
2023-02-06T11:37:54.210Z,98.40
2023-02-06T11:40:22.609Z,98.50
2023-02-06T11:42:54.199Z,98.70
2023-02-06T11:45:26.101Z,98.60
2023-02-06T11:47:52.982Z,98.20
2023-02-06T11:50:25.220Z,98.00
2023-02-06T11:52:57.313Z,97.90
2023-02-06T11:55:24.039Z,98.10
2023-02-06T11:58:09.661Z,98.40
2023-02-06T12:00:38.032Z,98.40
2023-02-06T12:03:05.355Z,98.20
2023-02-06T12:05:39.632Z,98.00
2023-02-06T12:08:17.899Z,98.10
2023-02-06T12:10:54.435Z,97.90
2023-02-06T12:13:23.870Z,98.10
2023-02-06T12:15:53.472Z,98.20
2023-02-06T12:18:37.157Z,98.20
2023-02-06T12:21:06.473Z,98.10
2023-02-06T12:23:45.260Z,98.20
2023-02-06T12:26:14.126Z,98.30
2023-02-06T12:28:52.986Z,98.40
2023-02-06T12:31:22.175Z,98.10
2023-02-06T12:33:54.031Z,97.60
2023-02-06T12:36:25.698Z,97.80
2023-02-06T12:39:07.473Z,97.90
2023-02-06T12:41:37.726Z,97.80
2023-02-06T12:44:28.213Z,98.00
2023-02-06T12:47:00.498Z,97.90
2023-02-06T12:49:37.597Z,98.10
2023-02-06T12:52:12.011Z,97.80
2023-02-06T12:54:44.818Z,98.10
2023-02-06T12:57:11.561Z,98.10
2023-02-06T12:59:56.745Z,97.80
2023-02-06T13:02:30.686Z,97.70
2023-02-06T13:04:57.768Z,97.50
2023-02-06T13:07:25.486Z,97.40
2023-02-06T13:10:00.794Z,97.50
2023-02-06T13:12:29.215Z,97.50
2023-02-06T13:14:59.878Z,97.40
2023-02-06T13:17:27.598Z,97.40
2023-02-06T13:20:07.092Z,97.50
2023-02-06T13:22:39.316Z,97.80
2023-02-06T13:25:24.869Z,97.30
2023-02-06T13:27:55.185Z,97.30
2023-02-06T13:30:31.451Z,97.30
2023-02-06T13:32:58.290Z,97.20
2023-02-06T13:35:26.912Z,97.50
2023-02-06T13:38:25.769Z,97.50
2023-02-06T13:41:10.976Z,97.50
2023-02-06T13:43:37.940Z,97.60
2023-02-06T13:46:11.668Z,97.40
2023-02-06T13:48:57.189Z,97.40
2023-02-06T13:51:26.671Z,97.60
2023-02-06T13:54:07.184Z,97.70
2023-02-06T13:56:51.946Z,97.60
2023-02-06T13:59:21.828Z,97.50
2023-02-06T14:01:48.720Z,97.60
2023-02-06T14:04:19.367Z,97.80
2023-02-06T14:06:46.130Z,97.70
2023-02-06T14:09:18.717Z,97.90
2023-02-06T14:12:21.820Z,97.70
2023-02-06T14:14:48.584Z,97.70
2023-02-06T14:17:38.606Z,97.60
2023-02-06T14:20:20.728Z,97.40
2023-02-06T14:22:47.529Z,97.50
2023-02-06T14:25:32.977Z,97.50
2023-02-06T14:28:02.946Z,97.40
2023-02-06T14:30:48.298Z,97.80
2023-02-06T14:33:41.487Z,97.60
2023-02-06T14:36:08.253Z,97.50
2023-02-06T14:38:53.824Z,97.50
2023-02-06T14:41:20.780Z,97.50
2023-02-06T14:43:48.785Z,97.40
2023-02-06T14:46:17.059Z,97.50
2023-02-06T14:48:58.201Z,97.30
2023-02-06T14:51:25.038Z,97.50
2023-02-06T14:54:01.612Z,97.70
2023-02-06T14:56:33.817Z,97.50
2023-02-06T14:59:12.790Z,97.60
2023-02-06T15:01:40.651Z,97.50
2023-02-06T15:04:09.237Z,97.50
2023-02-06T15:06:38.455Z,97.20
2023-02-06T15:09:05.725Z,97.10
2023-02-06T15:11:33.248Z,97.10
2023-02-06T15:14:05.607Z,97.20
2023-02-06T15:16:45.710Z,97.50
2023-02-06T15:19:16.793Z,97.30
2023-02-06T15:21:43.792Z,97.50
2023-02-06T15:24:13.385Z,97.40
2023-02-06T15:26:40.148Z,97.50
2023-02-06T15:29:17.153Z,97.70
2023-02-06T15:31:47.198Z,97.80
2023-02-06T15:34:16.697Z,97.90
2023-02-06T15:36:43.470Z,97.70
2023-02-06T15:39:11.057Z,97.60
2023-02-06T15:41:39.639Z,97.80
2023-02-06T15:44:19.517Z,97.50
2023-02-06T15:46:49.050Z,97.30
2023-02-06T15:49:19.992Z,97.30
2023-02-06T15:51:51.951Z,97.40
2023-02-06T15:54:20.002Z,97.10
2023-02-06T15:56:51.636Z,97.20
2023-02-06T15:59:21.064Z,97.10
2023-02-06T16:01:48.225Z,96.90
2023-02-06T16:04:28.207Z,96.80
2023-02-06T16:06:59.984Z,96.80
2023-02-06T16:09:26.863Z,96.70
2023-02-06T16:11:54.171Z,96.90
2023-02-06T16:14:24.064Z,96.90
2023-02-06T16:17:02.945Z,97.00
2023-02-06T16:19:49.982Z,96.90
2023-02-06T16:22:23.408Z,96.90
2023-02-06T16:24:51.873Z,96.90
2023-02-06T16:27:23.691Z,96.70
2023-02-06T16:29:52.640Z,97.00
2023-02-06T16:32:22.417Z,96.90
2023-02-06T16:34:49.346Z,97.20
2023-02-06T16:37:26.270Z,97.00
2023-02-06T16:39:53.425Z,97.20
2023-02-06T16:42:21.651Z,97.20
2023-02-06T16:44:50.229Z,97.20
2023-02-06T16:47:18.573Z,97.30
2023-02-06T16:49:48.320Z,97.30
2023-02-06T16:52:20.602Z,97.20
2023-02-06T16:54:47.619Z,96.90
2023-02-06T16:57:20.028Z,97.10
2023-02-06T16:59:46.933Z,97.20
2023-02-06T17:02:14.360Z,97.30
2023-02-06T17:04:41.386Z,97.20
2023-02-06T17:07:27.607Z,97.30
2023-02-06T17:09:55.862Z,97.10
2023-02-06T17:12:22.943Z,97.30
2023-02-06T17:14:50.085Z,97.00
2023-02-06T17:17:18.859Z,97.00
2023-02-06T17:19:48.052Z,96.90
2023-02-06T17:22:15.043Z,96.90
2023-02-06T17:24:42.351Z,96.90
2023-02-06T17:27:12.514Z,96.90
2023-02-06T17:29:39.428Z,96.90
2023-02-06T17:32:08.046Z,96.80
2023-02-06T17:34:35.132Z,97.20
2023-02-06T17:37:02.259Z,96.90
2023-02-06T17:39:29.329Z,96.90
2023-02-06T17:41:56.208Z,96.90
2023-02-06T17:44:23.073Z,97.00
2023-02-06T17:46:49.977Z,97.10
2023-02-06T17:49:17.338Z,97.10
2023-02-06T17:51:44.732Z,96.90
2023-02-06T17:54:11.862Z,97.00
2023-02-06T17:56:38.956Z,97.00
2023-02-06T17:59:05.955Z,96.90
2023-02-06T18:01:32.885Z,96.90
2023-02-06T18:04:01.016Z,97.10
2023-02-06T18:06:31.830Z,97.00
2023-02-06T18:08:58.640Z,96.90
2023-02-06T18:11:25.493Z,96.90
2023-02-06T18:13:52.409Z,97.00
2023-02-06T18:16:21.801Z,96.90
2023-02-06T18:18:48.802Z,96.90
2023-02-06T18:21:16.301Z,97.10
2023-02-06T18:23:43.082Z,96.90
2023-02-06T18:26:10.007Z,97.10
2023-02-06T18:28:37.766Z,97.00
2023-02-06T18:31:05.138Z,96.80
2023-02-06T18:33:33.858Z,97.00
2023-02-06T18:36:05.024Z,97.00
2023-02-06T18:38:31.932Z,97.30
2023-02-06T18:41:03.037Z,97.10
2023-02-06T18:43:29.876Z,97.10
2023-02-06T18:45:57.038Z,97.00
2023-02-06T18:48:24.188Z,97.10
2023-02-06T18:50:52.393Z,96.90
2023-02-06T18:53:19.190Z,96.90
2023-02-06T18:55:46.025Z,97.10
2023-02-06T18:58:12.823Z,96.90
2023-02-06T19:00:42.395Z,96.80
2023-02-06T19:03:09.237Z,97.10
2023-02-06T19:05:36.575Z,97.00
2023-02-06T19:08:03.357Z,96.90
2023-02-06T19:10:30.210Z,96.90
2023-02-06T19:12:57.258Z,97.10
2023-02-06T19:15:23.995Z,97.30
2023-02-06T19:17:50.774Z,96.80
2023-02-06T19:20:18.246Z,97.20
2023-02-06T19:22:44.976Z,96.90
2023-02-06T19:25:14.540Z,96.80
2023-02-06T19:27:41.674Z,97.10
2023-02-06T19:30:09.003Z,97.10
2023-02-06T19:32:36.229Z,96.90
2023-02-06T19:35:03.724Z,97.20
2023-02-06T19:37:30.833Z,97.00
2023-02-06T19:39:57.636Z,97.00
2023-02-06T19:42:24.456Z,97.00
2023-02-06T19:44:52.967Z,97.00
2023-02-06T19:47:19.799Z,97.00
2023-02-06T19:49:48.756Z,97.00
2023-02-06T19:52:15.494Z,97.20
2023-02-06T19:54:42.276Z,97.20
2023-02-06T19:57:09.332Z,97.10
2023-02-06T19:59:36.126Z,97.10
2023-02-06T20:02:03.235Z,97.50
2023-02-06T20:04:32.408Z,97.10
2023-02-06T20:06:59.356Z,97.10
2023-02-06T20:09:27.109Z,97.00
2023-02-06T20:11:54.434Z,97.20
2023-02-06T20:14:21.905Z,97.20
2023-02-06T20:16:49.357Z,97.20
2023-02-06T20:19:18.813Z,97.20
2023-02-06T20:21:47.264Z,97.00
2023-02-06T20:24:15.462Z,97.30
2023-02-06T20:26:42.875Z,97.00
2023-02-06T20:29:11.306Z,97.20
2023-02-06T20:31:38.192Z,97.30
2023-02-06T20:34:05.783Z,97.20
2023-02-06T20:36:32.643Z,96.90
2023-02-06T20:39:00.227Z,96.80
2023-02-06T20:41:28.700Z,96.90
2023-02-06T20:43:55.891Z,96.90
2023-02-06T20:46:23.012Z,97.00
2023-02-06T20:48:56.148Z,97.00
2023-02-06T20:51:23.320Z,96.90
2023-02-06T20:53:50.228Z,97.00
2023-02-06T20:56:17.549Z,96.80
2023-02-06T20:58:44.500Z,96.70
2023-02-06T21:01:31.784Z,96.70
2023-02-06T21:04:00.036Z,96.80
2023-02-06T21:06:28.026Z,96.90
2023-02-06T21:08:59.638Z,96.70
2023-02-06T21:11:30.267Z,96.80
2023-02-06T21:14:01.720Z,96.80
2023-02-06T21:16:29.476Z,96.70
2023-02-06T21:18:57.363Z,96.70
2023-02-06T21:21:25.684Z,96.60
2023-02-06T21:23:53.769Z,96.60
2023-02-06T21:26:20.514Z,96.50
2023-02-06T21:28:47.463Z,97.20
2023-02-06T21:31:16.078Z,96.80
2023-02-06T21:33:44.841Z,96.60
2023-02-06T21:36:12.060Z,97.10
2023-02-06T21:38:39.192Z,96.90
2023-02-06T21:41:06.089Z,97.00
2023-02-06T21:43:33.242Z,96.80
2023-02-06T21:46:00.242Z,96.80
2023-02-06T21:48:27.529Z,96.50
2023-02-06T21:50:54.349Z,97.00
2023-02-06T21:53:21.124Z,97.00
2023-02-06T21:55:47.951Z,96.70
2023-02-06T21:58:15.053Z,96.50
2023-02-06T22:00:43.510Z,96.60
2023-02-06T22:03:10.724Z,96.50
2023-02-06T22:05:38.039Z,96.60
2023-02-06T22:08:05.365Z,96.60
2023-02-06T22:10:34.588Z,96.80
2023-02-06T22:13:01.434Z,96.90
2023-02-06T22:15:28.158Z,97.00
2023-02-06T22:17:54.930Z,96.90
2023-02-06T22:20:21.741Z,97.20
2023-02-06T22:22:48.480Z,96.70
2023-02-06T22:25:15.266Z,97.20
2023-02-06T22:27:42.324Z,97.20
2023-02-06T22:30:09.528Z,96.60
2023-02-06T22:32:37.406Z,97.10
2023-02-06T22:35:04.442Z,96.90
2023-02-06T22:37:31.621Z,97.10
2023-02-06T22:39:58.367Z,96.50
2023-02-06T22:42:25.220Z,96.80
2023-02-06T22:44:51.928Z,97.10
2023-02-06T22:47:18.719Z,96.70
2023-02-06T22:49:45.559Z,97.30
2023-02-06T22:52:30.780Z,96.60
2023-02-06T22:54:57.565Z,96.70
2023-02-06T22:57:24.330Z,96.80
2023-02-06T22:59:51.113Z,96.70
2023-02-06T23:02:18.139Z,97.00
2023-02-06T23:04:44.901Z,96.70
2023-02-06T23:07:11.831Z,96.80
2023-02-06T23:09:39.117Z,97.10
2023-02-06T23:12:06.216Z,96.80
2023-02-06T23:14:33.450Z,96.70
2023-02-06T23:17:01.043Z,97.00
2023-02-06T23:19:27.862Z,96.80
2023-02-06T23:21:54.682Z,96.90
2023-02-06T23:24:21.532Z,96.80
2023-02-06T23:26:50.029Z,96.60
2023-02-06T23:29:17.987Z,96.80
2023-02-06T23:31:45.897Z,97.00
2023-02-06T23:34:13.200Z,96.90
2023-02-06T23:36:40.244Z,96.60
2023-02-06T23:39:07.144Z,96.70
2023-02-06T23:41:34.023Z,97.30
2023-02-06T23:44:02.327Z,96.70
2023-02-06T23:46:30.073Z,96.60
2023-02-06T23:48:56.882Z,97.00
2023-02-06T23:51:24.233Z,96.90
2023-02-06T23:53:51.590Z,96.80
2023-02-06T23:56:19.776Z,96.60
2023-02-06T23:58:46.755Z,96.90
